Airfield :
LOGIN :

Register | Disclaimer

   EN    FR    IT 

 










Legend :    VFR   Marginal VFR   IFR   Intensive IFR   Very Intensive IFR
Visi :
Ceiling :
>= 8 km
>= 3000ft
5 to 8 km
1000 to 3000 ft
1500m to 5 km
500 to 1000 ft
800 to 1500m
200 to 500 ft
< 800m
< 200 ft
Symbols :   Thunderstorms  Fog  Heavy snow  Heavy precipitations  Wind > 20 kt
SIGMETs :     Misc.  Thunderstorms  Icing  Turbulence  Mountain Waves  Volcanic Ashes







- Airport Elevation : 741 ft
- IATA code : PED


LKPD - Pardubice AB

CURRENT METAR :
  • 182100Z 25011KT 9999 FEW037 OVC050 04/M00 Q1013

EXPIRED METARs :
  • 182000Z 24010KT CAVOK 04/M01 Q1013 NOSIG RMK BLU BLU
  • 181900Z 24012KT 9999 SCT045 BKN060 05/M01 Q1013 NOSIG RMK BLU BLU
  • 181800Z 26012KT 9999 BKN045 05/M01 Q1014 NOSIG RMK BLU BLU

TAF TAF LKPD
Valid from the 18 at 18:00 until the 19 at 18:00 UTC


181700Z 1818/1918 26008KT 9999 BKN035
TEMPO 1818/1903 26014G24KT
TEMPO 1821/1906 5000 SHRASN BKN015 OVC025
TEMPO 1912/1918 26016G30KT
TEMPO 1915/1918 3000 SHRASN BKN010 OVC020
No reported NOTAMs for that airfield.



MET'MAP, your aeronautical weather chart ! - Copyright ORBIFLY December 2007 - Disclaimer

ORBIFLY MET'MAP TEAM :

Programming & Development : Alexandra Zaïnal
Concept & Development : Baudouin d'Aumeries
Co-Development & Prog : Marc-Olivier Méhu
Technical & hardware support : Manuel Goepfert

Contact : metmap@orbifly.com




SOURCES & CREDITS :

   NOAA